Capitol Logistics 912

Operating for DHL



EHAM
Schiphol International Airport
Amsterdam, NL
EDDK
Cologne Bonn Airport
Cologne, DE

Activity Log

Date Flight Route Aircraft Duration
02/18/2022 CPX912 ARNEM L620 SONEB Z841 GETNI T858 KOPAG B738 0h 56m
02/08/2022 CPX912 KUDA3S WOODY N872 NIK M624 REMBA UL607 SPI T857 DENOV LENDO T859 NVO NVO32 A30F 0h 55m
09/04/2021 CPX956 ARNEM3R ARNEM L620 SONEB Z841 GETNI T858 KOPAG KOPAG2V B738 0h 43m

Route Details

Aircraft Information
Group: European Fleet
Types: A30F,A31F,B738
Route Data
Demand: V
Distance: 124nm
Duration: 1h 25m
Recm'd Route: ARNEM L620 SONEB Z841 GETNI T858 KOPAG
Origin Wx: EHAM 270625Z 30012KT 270V340 9999 FEW025 14/09 Q1020 NOSIG
Dest. Wx: EDDK 270620Z AUTO 26013KT 3400 -RADZ BR BKN008 13/12 Q1020 RERA TEMPO RADZ
Notes:

Financial History
Total Freight: 132,853lbs
Average Load: 44,284lbs/flt
Fuel Used: 19,411lbs
Avg. Fuel Used: 6,470lbs/flt
Fuel Expense: $7,479
Avg. Fuel Expense: $2,493
Avg. Fuel Cost: $0.36/lbs
Total Gross Income: $271,153
Pilot Pay: $507
Total Expenses: $39,734
Total Revenue: $223,680
Average Revenue: $90,384.32